sensor_id;sensor_type;location;lat;lon;timestamp;P1;durP1;ratioP1;P2;durP2;ratioP2
64674;SDS011;51090;51.512;11.332;2022-11-15T00:00:53;21.85;;;9.93;;
64674;SDS011;51090;51.512;11.332;2022-11-15T00:03:21;21.75;;;9.77;;
64674;SDS011;51090;51.512;11.332;2022-11-15T00:05:49;21.60;;;10.73;;
64674;SDS011;51090;51.512;11.332;2022-11-15T00:08:15;21.52;;;10.38;;
64674;SDS011;51090;51.512;11.332;2022-11-15T00:10:41;22.40;;;10.15;;
64674;SDS011;51090;51.512;11.332;2022-11-15T00:13:07;22.55;;;10.50;;
64674;SDS011;51090;51.512;11.332;2022-11-15T00:15:40;20.45;;;9.52;;
64674;SDS011;51090;51.512;11.332;2022-11-15T00:18:06;17.83;;;8.98;;
64674;SDS011;51090;51.512;11.332;2022-11-15T00:20:37;18.60;;;9.38;;
64674;SDS011;51090;51.512;11.332;2022-11-15T00:23:04;19.55;;;9.25;;
64674;SDS011;51090;51.512;11.332;2022-11-15T00:25:30;16.50;;;8.82;;
64674;SDS011;51090;51.512;11.332;2022-11-15T00:27:56;18.90;;;8.88;;
64674;SDS011;51090;51.512;11.332;2022-11-15T00:30:23;19.75;;;8.35;;
64674;SDS011;51090;51.512;11.332;2022-11-15T00:32:50;18.65;;;8.73;;
64674;SDS011;51090;51.512;11.332;2022-11-15T00:35:16;20.80;;;9.35;;
64674;SDS011;51090;51.512;11.332;2022-11-15T00:37:43;18.10;;;8.93;;
64674;SDS011;51090;51.512;11.332;2022-11-15T00:40:09;19.45;;;8.60;;
64674;SDS011;51090;51.512;11.332;2022-11-15T00:42:37;22.60;;;9.95;;
64674;SDS011;51090;51.512;11.332;2022-11-15T00:45:03;17.52;;;8.25;;
64674;SDS011;51090;51.512;11.332;2022-11-15T00:47:29;16.52;;;7.90;;
64674;SDS011;51090;51.512;11.332;2022-11-15T00:49:55;17.05;;;7.80;;
64674;SDS011;51090;51.512;11.332;2022-11-15T00:52:21;15.60;;;8.05;;
64674;SDS011;51090;51.512;11.332;2022-11-15T00:54:46;17.77;;;8.65;;
64674;SDS011;51090;51.512;11.332;2022-11-15T00:57:12;17.50;;;7.97;;
64674;SDS011;51090;51.512;11.332;2022-11-15T00:59:38;16.60;;;7.32;;
64674;SDS011;51090;51.512;11.332;2022-11-15T01:02:03;15.75;;;7.32;;
64674;SDS011;51090;51.512;11.332;2022-11-15T01:04:29;15.60;;;7.43;;
64674;SDS011;51090;51.512;11.332;2022-11-15T01:06:55;15.40;;;7.75;;
64674;SDS011;51090;51.512;11.332;2022-11-15T01:09:20;16.50;;;7.05;;
64674;SDS011;51090;51.512;11.332;2022-11-15T01:11:46;18.65;;;8.13;;
64674;SDS011;51090;51.512;11.332;2022-11-15T01:14:12;21.13;;;9.32;;
64674;SDS011;51090;51.512;11.332;2022-11-15T01:16:38;14.80;;;6.78;;
64674;SDS011;51090;51.512;11.332;2022-11-15T01:19:04;15.40;;;6.80;;
64674;SDS011;51090;51.512;11.332;2022-11-15T01:21:29;15.07;;;7.07;;
64674;SDS011;51090;51.512;11.332;2022-11-15T01:23:56;13.30;;;6.43;;
64674;SDS011;51090;51.512;11.332;2022-11-15T01:26:22;14.75;;;6.70;;
64674;SDS011;51090;51.512;11.332;2022-11-15T01:28:49;19.10;;;7.70;;
64674;SDS011;51090;51.512;11.332;2022-11-15T01:31:17;14.63;;;6.68;;
64674;SDS011;51090;51.512;11.332;2022-11-15T01:33:46;14.10;;;6.30;;
64674;SDS011;51090;51.512;11.332;2022-11-15T01:36:14;15.38;;;6.55;;
64674;SDS011;51090;51.512;11.332;2022-11-15T01:38:55;13.85;;;6.75;;
64674;SDS011;51090;51.512;11.332;2022-11-15T01:41:24;15.75;;;6.68;;
64674;SDS011;51090;51.512;11.332;2022-11-15T01:43:57;14.93;;;7.43;;
64674;SDS011;51090;51.512;11.332;2022-11-15T01:46:59;11.57;;;6.40;;
64674;SDS011;51090;51.512;11.332;2022-11-15T01:49:30;14.27;;;6.25;;
64674;SDS011;51090;51.512;11.332;2022-11-15T01:51:58;15.30;;;6.22;;
64674;SDS011;51090;51.512;11.332;2022-11-15T01:54:27;14.13;;;6.00;;
64674;SDS011;51090;51.512;11.332;2022-11-15T01:56:55;14.18;;;6.50;;
64674;SDS011;51090;51.512;11.332;2022-11-15T01:59:26;13.32;;;5.85;;
64674;SDS011;51090;51.512;11.332;2022-11-15T02:01:53;12.70;;;5.65;;
64674;SDS011;51090;51.512;11.332;2022-11-15T02:04:20;12.80;;;5.47;;
64674;SDS011;51090;51.512;11.332;2022-11-15T02:06:53;12.00;;;5.43;;
64674;SDS011;51090;51.512;11.332;2022-11-15T02:09:18;13.88;;;5.60;;
64674;SDS011;51090;51.512;11.332;2022-11-15T02:11:44;14.45;;;5.85;;
64674;SDS011;51090;51.512;11.332;2022-11-15T02:14:12;12.27;;;5.15;;
64674;SDS011;51090;51.512;11.332;2022-11-15T02:28:10;9.82;;;4.32;;
64674;SDS011;51090;51.512;11.332;2022-11-15T02:36:50;10.00;;;5.13;;
64674;SDS011;51090;51.512;11.332;2022-11-15T02:39:41;10.27;;;4.53;;
64674;SDS011;51090;51.512;11.332;2022-11-15T02:42:27;10.52;;;4.88;;
64674;SDS011;51090;51.512;11.332;2022-11-15T02:47:54;8.68;;;4.15;;
64674;SDS011;51090;51.512;11.332;2022-11-15T02:50:25;8.82;;;4.22;;
64674;SDS011;51090;51.512;11.332;2022-11-15T02:52:54;10.48;;;4.95;;
64674;SDS011;51090;51.512;11.332;2022-11-15T02:55:28;9.45;;;4.47;;
64674;SDS011;51090;51.512;11.332;2022-11-15T02:58:04;11.23;;;4.97;;
64674;SDS011;51090;51.512;11.332;2022-11-15T03:01:25;10.57;;;5.60;;
64674;SDS011;51090;51.512;11.332;2022-11-15T03:07:11;10.20;;;4.88;;
64674;SDS011;51090;51.512;11.332;2022-11-15T03:12:30;9.85;;;4.57;;
64674;SDS011;51090;51.512;11.332;2022-11-15T03:15:08;11.57;;;4.55;;
64674;SDS011;51090;51.512;11.332;2022-11-15T03:18:06;12.10;;;4.50;;
64674;SDS011;51090;51.512;11.332;2022-11-15T03:21:01;8.95;;;4.47;;
64674;SDS011;51090;51.512;11.332;2022-11-15T03:23:32;11.85;;;4.45;;
64674;SDS011;51090;51.512;11.332;2022-11-15T03:26:00;10.40;;;4.57;;
64674;SDS011;51090;51.512;11.332;2022-11-15T03:29:13;13.57;;;4.97;;
64674;SDS011;51090;51.512;11.332;2022-11-15T03:31:43;9.60;;;4.43;;
64674;SDS011;51090;51.512;11.332;2022-11-15T03:34:16;10.43;;;5.23;;
64674;SDS011;51090;51.512;11.332;2022-11-15T03:37:03;10.75;;;4.63;;
64674;SDS011;51090;51.512;11.332;2022-11-15T03:39:30;10.02;;;4.43;;
64674;SDS011;51090;51.512;11.332;2022-11-15T03:47:52;11.32;;;4.72;;
64674;SDS011;51090;51.512;11.332;2022-11-15T03:50:47;10.80;;;4.35;;
64674;SDS011;51090;51.512;11.332;2022-11-15T03:53:14;8.40;;;4.18;;
64674;SDS011;51090;51.512;11.332;2022-11-15T03:55:39;9.32;;;4.30;;
64674;SDS011;51090;51.512;11.332;2022-11-15T03:58:05;9.57;;;4.35;;
64674;SDS011;51090;51.512;11.332;2022-11-15T04:00:31;10.00;;;5.13;;
64674;SDS011;51090;51.512;11.332;2022-11-15T04:02:57;12.73;;;4.78;;
64674;SDS011;51090;51.512;11.332;2022-11-15T04:05:23;11.82;;;4.70;;
64674;SDS011;51090;51.512;11.332;2022-11-15T04:07:49;10.65;;;4.40;;
64674;SDS011;51090;51.512;11.332;2022-11-15T04:10:15;8.23;;;4.03;;
64674;SDS011;51090;51.512;11.332;2022-11-15T04:12:42;8.98;;;4.25;;
64674;SDS011;51090;51.512;11.332;2022-11-15T04:15:15;8.48;;;4.60;;
64674;SDS011;51090;51.512;11.332;2022-11-15T04:17:47;11.25;;;4.35;;
64674;SDS011;51090;51.512;11.332;2022-11-15T04:20:22;9.48;;;3.72;;
64674;SDS011;51090;51.512;11.332;2022-11-15T04:26:03;7.78;;;3.75;;
64674;SDS011;51090;51.512;11.332;2022-11-15T04:28:36;8.88;;;4.25;;
64674;SDS011;51090;51.512;11.332;2022-11-15T04:31:24;6.85;;;3.63;;
64674;SDS011;51090;51.512;11.332;2022-11-15T04:33:51;7.47;;;3.75;;
64674;SDS011;51090;51.512;11.332;2022-11-15T04:36:17;9.93;;;4.35;;
64674;SDS011;51090;51.512;11.332;2022-11-15T04:39:03;9.13;;;3.85;;
64674;SDS011;51090;51.512;11.332;2022-11-15T04:41:28;9.48;;;3.97;;
64674;SDS011;51090;51.512;11.332;2022-11-15T04:43:54;8.98;;;4.00;;
64674;SDS011;51090;51.512;11.332;2022-11-15T04:46:20;9.00;;;3.95;;
64674;SDS011;51090;51.512;11.332;2022-11-15T04:48:47;8.70;;;4.15;;
64674;SDS011;51090;51.512;11.332;2022-11-15T04:51:13;12.05;;;4.28;;
64674;SDS011;51090;51.512;11.332;2022-11-15T04:53:38;10.18;;;4.43;;
64674;SDS011;51090;51.512;11.332;2022-11-15T04:56:04;11.25;;;4.82;;
64674;SDS011;51090;51.512;11.332;2022-11-15T04:58:30;9.85;;;4.38;;
64674;SDS011;51090;51.512;11.332;2022-11-15T05:00:56;11.18;;;4.18;;
64674;SDS011;51090;51.512;11.332;2022-11-15T05:03:21;8.82;;;3.50;;
64674;SDS011;51090;51.512;11.332;2022-11-15T05:06:06;9.07;;;3.83;;
64674;SDS011;51090;51.512;11.332;2022-11-15T05:08:32;10.75;;;4.13;;
64674;SDS011;51090;51.512;11.332;2022-11-15T05:10:58;8.27;;;3.90;;
64674;SDS011;51090;51.512;11.332;2022-11-15T05:13:23;11.13;;;4.40;;
64674;SDS011;51090;51.512;11.332;2022-11-15T05:15:49;9.50;;;4.00;;
64674;SDS011;51090;51.512;11.332;2022-11-15T05:18:15;8.25;;;4.20;;
64674;SDS011;51090;51.512;11.332;2022-11-15T05:20:41;10.98;;;4.45;;
64674;SDS011;51090;51.512;11.332;2022-11-15T05:23:06;7.47;;;3.95;;
64674;SDS011;51090;51.512;11.332;2022-11-15T05:25:32;12.15;;;4.40;;
64674;SDS011;51090;51.512;11.332;2022-11-15T05:27:58;9.80;;;4.00;;
64674;SDS011;51090;51.512;11.332;2022-11-15T05:30:24;10.57;;;3.88;;
64674;SDS011;51090;51.512;11.332;2022-11-15T05:32:50;7.90;;;4.13;;
64674;SDS011;51090;51.512;11.332;2022-11-15T05:35:27;10.05;;;4.18;;
64674;SDS011;51090;51.512;11.332;2022-11-15T05:38:07;9.68;;;4.03;;
64674;SDS011;51090;51.512;11.332;2022-11-15T05:40:33;12.30;;;5.07;;
64674;SDS011;51090;51.512;11.332;2022-11-15T05:42:59;9.93;;;3.95;;
64674;SDS011;51090;51.512;11.332;2022-11-15T05:45:27;10.52;;;4.60;;
64674;SDS011;51090;51.512;11.332;2022-11-15T05:47:54;10.05;;;4.15;;
64674;SDS011;51090;51.512;11.332;2022-11-15T05:50:22;9.00;;;4.55;;
64674;SDS011;51090;51.512;11.332;2022-11-15T05:52:48;11.18;;;5.05;;
64674;SDS011;51090;51.512;11.332;2022-11-15T05:55:14;10.88;;;4.55;;
64674;SDS011;51090;51.512;11.332;2022-11-15T05:57:41;13.77;;;6.05;;
64674;SDS011;51090;51.512;11.332;2022-11-15T06:00:07;9.30;;;4.50;;
64674;SDS011;51090;51.512;11.332;2022-11-15T06:02:34;10.02;;;3.90;;
64674;SDS011;51090;51.512;11.332;2022-11-15T06:05:00;11.63;;;4.65;;
64674;SDS011;51090;51.512;11.332;2022-11-15T06:07:26;9.60;;;3.83;;
64674;SDS011;51090;51.512;11.332;2022-11-15T06:09:53;7.40;;;3.60;;
64674;SDS011;51090;51.512;11.332;2022-11-15T06:12:19;13.57;;;5.35;;
64674;SDS011;51090;51.512;11.332;2022-11-15T06:14:44;10.30;;;4.53;;
64674;SDS011;51090;51.512;11.332;2022-11-15T06:17:10;9.75;;;3.95;;
64674;SDS011;51090;51.512;11.332;2022-11-15T06:19:36;10.60;;;4.95;;
64674;SDS011;51090;51.512;11.332;2022-11-15T06:22:02;10.63;;;4.75;;
64674;SDS011;51090;51.512;11.332;2022-11-15T06:24:27;10.32;;;4.57;;
64674;SDS011;51090;51.512;11.332;2022-11-15T06:26:53;16.30;;;5.57;;
64674;SDS011;51090;51.512;11.332;2022-11-15T06:29:19;16.13;;;5.80;;
64674;SDS011;51090;51.512;11.332;2022-11-15T06:31:45;8.38;;;4.18;;
64674;SDS011;51090;51.512;11.332;2022-11-15T06:34:10;12.23;;;5.07;;
64674;SDS011;51090;51.512;11.332;2022-11-15T06:36:36;12.65;;;4.57;;
64674;SDS011;51090;51.512;11.332;2022-11-15T06:39:03;8.15;;;4.03;;
64674;SDS011;51090;51.512;11.332;2022-11-15T06:41:29;10.98;;;4.78;;
64674;SDS011;51090;51.512;11.332;2022-11-15T06:43:56;12.55;;;5.18;;
64674;SDS011;51090;51.512;11.332;2022-11-15T06:46:22;10.55;;;4.90;;
64674;SDS011;51090;51.512;11.332;2022-11-15T06:48:49;9.82;;;4.47;;
64674;SDS011;51090;51.512;11.332;2022-11-15T06:51:16;9.15;;;4.22;;
64674;SDS011;51090;51.512;11.332;2022-11-15T06:53:42;8.35;;;3.90;;
64674;SDS011;51090;51.512;11.332;2022-11-15T06:56:08;11.35;;;4.88;;
64674;SDS011;51090;51.512;11.332;2022-11-15T06:58:35;12.63;;;5.22;;
64674;SDS011;51090;51.512;11.332;2022-11-15T07:01:05;13.88;;;6.10;;
64674;SDS011;51090;51.512;11.332;2022-11-15T07:03:35;10.60;;;4.80;;
64674;SDS011;51090;51.512;11.332;2022-11-15T07:06:06;11.70;;;6.10;;
64674;SDS011;51090;51.512;11.332;2022-11-15T07:08:33;10.18;;;4.85;;
64674;SDS011;51090;51.512;11.332;2022-11-15T07:11:01;8.95;;;4.55;;
64674;SDS011;51090;51.512;11.332;2022-11-15T07:13:29;9.10;;;3.95;;
64674;SDS011;51090;51.512;11.332;2022-11-15T07:16:06;10.20;;;4.85;;
64674;SDS011;51090;51.512;11.332;2022-11-15T07:18:35;9.73;;;4.82;;
64674;SDS011;51090;51.512;11.332;2022-11-15T07:21:03;8.23;;;4.18;;
64674;SDS011;51090;51.512;11.332;2022-11-15T07:23:32;9.57;;;4.38;;
64674;SDS011;51090;51.512;11.332;2022-11-15T07:25:58;11.45;;;5.40;;
64674;SDS011;51090;51.512;11.332;2022-11-15T07:28:28;11.30;;;4.75;;
64674;SDS011;51090;51.512;11.332;2022-11-15T07:30:54;10.93;;;5.32;;
64674;SDS011;51090;51.512;11.332;2022-11-15T07:33:19;10.43;;;5.28;;
64674;SDS011;51090;51.512;11.332;2022-11-15T07:35:45;9.88;;;5.05;;
64674;SDS011;51090;51.512;11.332;2022-11-15T07:38:14;10.75;;;5.43;;
64674;SDS011;51090;51.512;11.332;2022-11-15T07:40:41;12.23;;;5.60;;
64674;SDS011;51090;51.512;11.332;2022-11-15T07:43:07;12.60;;;6.20;;
64674;SDS011;51090;51.512;11.332;2022-11-15T07:45:33;12.77;;;4.93;;
64674;SDS011;51090;51.512;11.332;2022-11-15T07:47:59;9.75;;;5.10;;
64674;SDS011;51090;51.512;11.332;2022-11-15T07:50:26;12.00;;;5.88;;
64674;SDS011;51090;51.512;11.332;2022-11-15T07:52:55;10.40;;;5.25;;
64674;SDS011;51090;51.512;11.332;2022-11-15T07:55:23;12.48;;;5.55;;
64674;SDS011;51090;51.512;11.332;2022-11-15T07:57:50;10.98;;;5.43;;
64674;SDS011;51090;51.512;11.332;2022-11-15T08:00:16;13.23;;;5.05;;
64674;SDS011;51090;51.512;11.332;2022-11-15T08:02:42;10.57;;;4.88;;
64674;SDS011;51090;51.512;11.332;2022-11-15T08:05:08;12.77;;;5.70;;
64674;SDS011;51090;51.512;11.332;2022-11-15T08:07:34;14.68;;;5.55;;
64674;SDS011;51090;51.512;11.332;2022-11-15T08:10:00;11.25;;;5.30;;
64674;SDS011;51090;51.512;11.332;2022-11-15T08:12:27;12.25;;;5.38;;
64674;SDS011;51090;51.512;11.332;2022-11-15T08:14:54;10.57;;;5.70;;
64674;SDS011;51090;51.512;11.332;2022-11-15T08:17:21;12.27;;;5.20;;
64674;SDS011;51090;51.512;11.332;2022-11-15T08:19:48;10.27;;;4.90;;
64674;SDS011;51090;51.512;11.332;2022-11-15T08:22:14;9.02;;;4.75;;
64674;SDS011;51090;51.512;11.332;2022-11-15T08:24:40;9.23;;;4.82;;
64674;SDS011;51090;51.512;11.332;2022-11-15T08:27:06;8.73;;;4.93;;
64674;SDS011;51090;51.512;11.332;2022-11-15T08:29:39;12.77;;;5.47;;
64674;SDS011;51090;51.512;11.332;2022-11-15T08:32:12;11.55;;;5.28;;
64674;SDS011;51090;51.512;11.332;2022-11-15T08:34:38;12.88;;;5.03;;
64674;SDS011;51090;51.512;11.332;2022-11-15T08:37:03;14.52;;;5.75;;
64674;SDS011;51090;51.512;11.332;2022-11-15T08:39:29;9.07;;;4.72;;
64674;SDS011;51090;51.512;11.332;2022-11-15T08:41:55;10.85;;;4.85;;
64674;SDS011;51090;51.512;11.332;2022-11-15T08:44:21;14.65;;;6.22;;
64674;SDS011;51090;51.512;11.332;2022-11-15T08:46:47;13.32;;;6.75;;
64674;SDS011;51090;51.512;11.332;2022-11-15T08:49:12;12.77;;;7.50;;
64674;SDS011;51090;51.512;11.332;2022-11-15T08:51:38;12.95;;;6.32;;
64674;SDS011;51090;51.512;11.332;2022-11-15T08:54:04;12.85;;;6.43;;
64674;SDS011;51090;51.512;11.332;2022-11-15T08:56:30;13.50;;;5.90;;
64674;SDS011;51090;51.512;11.332;2022-11-15T08:58:56;11.93;;;5.65;;
64674;SDS011;51090;51.512;11.332;2022-11-15T09:01:22;12.52;;;5.60;;
64674;SDS011;51090;51.512;11.332;2022-11-15T09:03:48;15.63;;;6.57;;
64674;SDS011;51090;51.512;11.332;2022-11-15T09:06:13;13.57;;;6.80;;
64674;SDS011;51090;51.512;11.332;2022-11-15T09:08:40;13.20;;;5.80;;
64674;SDS011;51090;51.512;11.332;2022-11-15T09:11:06;10.63;;;5.18;;
64674;SDS011;51090;51.512;11.332;2022-11-15T09:13:34;11.43;;;5.15;;
64674;SDS011;51090;51.512;11.332;2022-11-15T09:16:04;10.25;;;4.97;;
64674;SDS011;51090;51.512;11.332;2022-11-15T09:18:30;9.32;;;4.85;;
64674;SDS011;51090;51.512;11.332;2022-11-15T09:20:57;7.30;;;4.05;;
64674;SDS011;51090;51.512;11.332;2022-11-15T09:23:24;8.68;;;4.32;;
64674;SDS011;51090;51.512;11.332;2022-11-15T09:25:51;12.80;;;4.65;;
64674;SDS011;51090;51.512;11.332;2022-11-15T09:28:18;12.07;;;6.07;;
64674;SDS011;51090;51.512;11.332;2022-11-15T09:30:44;8.85;;;4.38;;
64674;SDS011;51090;51.512;11.332;2022-11-15T09:33:10;8.10;;;3.35;;
64674;SDS011;51090;51.512;11.332;2022-11-15T09:35:37;8.02;;;3.75;;
64674;SDS011;51090;51.512;11.332;2022-11-15T09:38:03;8.60;;;3.65;;
64674;SDS011;51090;51.512;11.332;2022-11-15T09:40:30;8.50;;;4.03;;
64674;SDS011;51090;51.512;11.332;2022-11-15T09:45:42;10.45;;;5.40;;
64674;SDS011;51090;51.512;11.332;2022-11-15T09:51:23;10.70;;;4.22;;
64674;SDS011;51090;51.512;11.332;2022-11-15T09:56:31;9.93;;;4.40;;
64674;SDS011;51090;51.512;11.332;2022-11-15T10:04:27;6.10;;;3.45;;
64674;SDS011;51090;51.512;11.332;2022-11-15T10:06:55;9.13;;;3.47;;
64674;SDS011;51090;51.512;11.332;2022-11-15T10:09:41;8.18;;;3.08;;
64674;SDS011;51090;51.512;11.332;2022-11-15T10:12:18;6.05;;;3.30;;
64674;SDS011;51090;51.512;11.332;2022-11-15T10:14:45;5.55;;;2.83;;
64674;SDS011;51090;51.512;11.332;2022-11-15T10:30:47;5.53;;;2.40;;
64674;SDS011;51090;51.512;11.332;2022-11-15T10:35:47;8.07;;;4.05;;
64674;SDS011;51090;51.512;11.332;2022-11-15T10:38:13;5.40;;;2.90;;
64674;SDS011;51090;51.512;11.332;2022-11-15T10:40:39;5.63;;;2.90;;
64674;SDS011;51090;51.512;11.332;2022-11-15T10:45:35;4.95;;;2.45;;
64674;SDS011;51090;51.512;11.332;2022-11-15T10:48:18;5.60;;;2.38;;
64674;SDS011;51090;51.512;11.332;2022-11-15T10:50:48;5.97;;;2.55;;
64674;SDS011;51090;51.512;11.332;2022-11-15T10:56:02;4.50;;;2.38;;
64674;SDS011;51090;51.512;11.332;2022-11-15T11:01:19;6.05;;;2.70;;
64674;SDS011;51090;51.512;11.332;2022-11-15T11:06:30;7.75;;;3.00;;
64674;SDS011;51090;51.512;11.332;2022-11-15T11:12:26;6.13;;;2.95;;
64674;SDS011;51090;51.512;11.332;2022-11-15T11:14:56;6.57;;;3.38;;
64674;SDS011;51090;51.512;11.332;2022-11-15T11:37:41;6.13;;;2.65;;
64674;SDS011;51090;51.512;11.332;2022-11-15T11:43:08;7.05;;;3.20;;
64674;SDS011;51090;51.512;11.332;2022-11-15T11:45:53;10.88;;;3.20;;
64674;SDS011;51090;51.512;11.332;2022-11-15T11:51:56;8.02;;;2.92;;
64674;SDS011;51090;51.512;11.332;2022-11-15T11:54:37;6.40;;;3.03;;
64674;SDS011;51090;51.512;11.332;2022-11-15T11:57:13;5.47;;;2.97;;
64674;SDS011;51090;51.512;11.332;2022-11-15T12:02:50;6.32;;;2.35;;
64674;SDS011;51090;51.512;11.332;2022-11-15T12:05:34;5.07;;;2.60;;
64674;SDS011;51090;51.512;11.332;2022-11-15T12:10:45;7.35;;;3.42;;
64674;SDS011;51090;51.512;11.332;2022-11-15T12:13:19;5.32;;;2.88;;
64674;SDS011;51090;51.512;11.332;2022-11-15T12:15:56;5.63;;;2.67;;
64674;SDS011;51090;51.512;11.332;2022-11-15T12:18:30;6.50;;;2.90;;
64674;SDS011;51090;51.512;11.332;2022-11-15T12:20:57;6.60;;;2.67;;
64674;SDS011;51090;51.512;11.332;2022-11-15T12:23:44;4.18;;;2.45;;
64674;SDS011;51090;51.512;11.332;2022-11-15T12:26:20;5.72;;;2.60;;
64674;SDS011;51090;51.512;11.332;2022-11-15T12:28:54;6.28;;;2.95;;
64674;SDS011;51090;51.512;11.332;2022-11-15T12:34:00;4.75;;;2.50;;
64674;SDS011;51090;51.512;11.332;2022-11-15T12:36:46;8.10;;;2.42;;
64674;SDS011;51090;51.512;11.332;2022-11-15T12:39:14;4.65;;;2.38;;
64674;SDS011;51090;51.512;11.332;2022-11-15T12:41:42;4.43;;;2.28;;
64674;SDS011;51090;51.512;11.332;2022-11-15T12:44:13;4.53;;;2.20;;
64674;SDS011;51090;51.512;11.332;2022-11-15T12:47:24;7.18;;;2.38;;
64674;SDS011;51090;51.512;11.332;2022-11-15T12:49:52;7.43;;;2.40;;
64674;SDS011;51090;51.512;11.332;2022-11-15T12:52:18;7.25;;;2.75;;
64674;SDS011;51090;51.512;11.332;2022-11-15T12:54:55;5.88;;;2.35;;
64674;SDS011;51090;51.512;11.332;2022-11-15T12:57:27;7.30;;;2.22;;
64674;SDS011;51090;51.512;11.332;2022-11-15T13:22:47;37.05;;;14.43;;
64674;SDS011;51090;51.512;11.332;2022-11-15T13:28:11;55.33;;;18.83;;
64674;SDS011;51090;51.512;11.332;2022-11-15T13:34:22;12.27;;;4.93;;
64674;SDS011;51090;51.512;11.332;2022-11-15T13:37:01;10.35;;;3.65;;
64674;SDS011;51090;51.512;11.332;2022-11-15T13:39:31;7.32;;;2.72;;
64674;SDS011;51090;51.512;11.332;2022-11-15T13:41:59;5.97;;;2.45;;
64674;SDS011;51090;51.512;11.332;2022-11-15T13:44:26;7.63;;;2.90;;
64674;SDS011;51090;51.512;11.332;2022-11-15T13:47:06;39.22;;;15.18;;
64674;SDS011;51090;51.512;11.332;2022-11-15T13:49:39;14.63;;;6.85;;
64674;SDS011;51090;51.512;11.332;2022-11-15T13:52:10;8.27;;;3.42;;
64674;SDS011;51090;51.512;11.332;2022-11-15T13:57:13;5.80;;;2.53;;
64674;SDS011;51090;51.512;11.332;2022-11-15T13:59:50;7.22;;;2.60;;
64674;SDS011;51090;51.512;11.332;2022-11-15T14:02:40;5.45;;;2.63;;
64674;SDS011;51090;51.512;11.332;2022-11-15T14:10:30;6.53;;;2.20;;
64674;SDS011;51090;51.512;11.332;2022-11-15T14:13:02;5.00;;;2.83;;
64674;SDS011;51090;51.512;11.332;2022-11-15T14:18:02;9.85;;;3.75;;
64674;SDS011;51090;51.512;11.332;2022-11-15T14:20:31;8.13;;;4.03;;
64674;SDS011;51090;51.512;11.332;2022-11-15T14:23:02;10.13;;;3.20;;
64674;SDS011;51090;51.512;11.332;2022-11-15T14:25:53;5.63;;;2.08;;
64674;SDS011;51090;51.512;11.332;2022-11-15T14:30:49;14.57;;;7.53;;
64674;SDS011;51090;51.512;11.332;2022-11-15T14:33:25;18.42;;;8.23;;
64674;SDS011;51090;51.512;11.332;2022-11-15T14:36:04;11.98;;;6.32;;
64674;SDS011;51090;51.512;11.332;2022-11-15T14:38:36;10.02;;;4.95;;
64674;SDS011;51090;51.512;11.332;2022-11-15T14:41:02;9.05;;;4.03;;
64674;SDS011;51090;51.512;11.332;2022-11-15T14:43:28;10.55;;;4.28;;
64674;SDS011;51090;51.512;11.332;2022-11-15T14:45:53;7.60;;;3.67;;
64674;SDS011;51090;51.512;11.332;2022-11-15T14:48:19;8.77;;;4.28;;
64674;SDS011;51090;51.512;11.332;2022-11-15T14:50:45;8.90;;;4.13;;
64674;SDS011;51090;51.512;11.332;2022-11-15T14:53:12;7.93;;;3.75;;
64674;SDS011;51090;51.512;11.332;2022-11-15T14:55:42;10.90;;;5.82;;
64674;SDS011;51090;51.512;11.332;2022-11-15T14:58:08;10.65;;;4.90;;
64674;SDS011;51090;51.512;11.332;2022-11-15T15:00:35;8.65;;;3.92;;
64674;SDS011;51090;51.512;11.332;2022-11-15T15:03:04;9.43;;;4.28;;
64674;SDS011;51090;51.512;11.332;2022-11-15T15:05:38;11.60;;;4.38;;
64674;SDS011;51090;51.512;11.332;2022-11-15T15:08:08;8.10;;;4.05;;
64674;SDS011;51090;51.512;11.332;2022-11-15T15:10:36;6.07;;;3.47;;
64674;SDS011;51090;51.512;11.332;2022-11-15T15:13:14;7.47;;;3.88;;
64674;SDS011;51090;51.512;11.332;2022-11-15T15:15:46;10.52;;;5.22;;
64674;SDS011;51090;51.512;11.332;2022-11-15T15:18:13;9.63;;;4.00;;
64674;SDS011;51090;51.512;11.332;2022-11-15T15:20:41;8.30;;;3.25;;
64674;SDS011;51090;51.512;11.332;2022-11-15T15:23:15;8.35;;;4.43;;
64674;SDS011;51090;51.512;11.332;2022-11-15T15:25:43;11.95;;;5.78;;
64674;SDS011;51090;51.512;11.332;2022-11-15T15:28:10;11.68;;;6.03;;
64674;SDS011;51090;51.512;11.332;2022-11-15T15:30:37;14.15;;;5.60;;
64674;SDS011;51090;51.512;11.332;2022-11-15T15:33:03;9.35;;;4.57;;
64674;SDS011;51090;51.512;11.332;2022-11-15T15:35:29;12.93;;;5.78;;
64674;SDS011;51090;51.512;11.332;2022-11-15T15:37:57;10.98;;;5.60;;
64674;SDS011;51090;51.512;11.332;2022-11-15T15:40:24;11.88;;;6.25;;
64674;SDS011;51090;51.512;11.332;2022-11-15T15:42:52;14.55;;;7.20;;
64674;SDS011;51090;51.512;11.332;2022-11-15T15:45:18;11.50;;;5.85;;
64674;SDS011;51090;51.512;11.332;2022-11-15T15:47:44;12.60;;;6.00;;
64674;SDS011;51090;51.512;11.332;2022-11-15T15:52:53;8.13;;;4.63;;
64674;SDS011;51090;51.512;11.332;2022-11-15T15:55:21;9.30;;;4.85;;
64674;SDS011;51090;51.512;11.332;2022-11-15T15:57:48;9.75;;;4.95;;
64674;SDS011;51090;51.512;11.332;2022-11-15T16:00:14;10.38;;;5.95;;
64674;SDS011;51090;51.512;11.332;2022-11-15T16:02:41;15.93;;;8.77;;
64674;SDS011;51090;51.512;11.332;2022-11-15T16:05:08;17.60;;;9.57;;
64674;SDS011;51090;51.512;11.332;2022-11-15T16:07:35;17.27;;;9.38;;
64674;SDS011;51090;51.512;11.332;2022-11-15T16:10:02;16.23;;;8.57;;
64674;SDS011;51090;51.512;11.332;2022-11-15T16:12:49;14.82;;;7.60;;
64674;SDS011;51090;51.512;11.332;2022-11-15T16:15:16;16.85;;;8.20;;
64674;SDS011;51090;51.512;11.332;2022-11-15T16:17:45;14.00;;;7.55;;
64674;SDS011;51090;51.512;11.332;2022-11-15T16:23:07;10.60;;;5.75;;
64674;SDS011;51090;51.512;11.332;2022-11-15T16:25:37;11.43;;;5.78;;
64674;SDS011;51090;51.512;11.332;2022-11-15T16:28:19;11.65;;;5.25;;
64674;SDS011;51090;51.512;11.332;2022-11-15T16:31:07;16.00;;;6.72;;
64674;SDS011;51090;51.512;11.332;2022-11-15T16:33:35;15.38;;;6.72;;
64674;SDS011;51090;51.512;11.332;2022-11-15T16:36:02;12.10;;;6.47;;
64674;SDS011;51090;51.512;11.332;2022-11-15T16:38:39;18.20;;;7.63;;
64674;SDS011;51090;51.512;11.332;2022-11-15T16:41:04;11.80;;;6.45;;
64674;SDS011;51090;51.512;11.332;2022-11-15T16:43:30;14.68;;;7.22;;
64674;SDS011;51090;51.512;11.332;2022-11-15T16:45:56;12.25;;;6.70;;
64674;SDS011;51090;51.512;11.332;2022-11-15T16:48:25;18.30;;;7.35;;
64674;SDS011;51090;51.512;11.332;2022-11-15T16:50:56;18.52;;;7.65;;
64674;SDS011;51090;51.512;11.332;2022-11-15T16:53:23;19.48;;;9.05;;
64674;SDS011;51090;51.512;11.332;2022-11-15T16:55:50;23.85;;;9.40;;
64674;SDS011;51090;51.512;11.332;2022-11-15T16:58:16;17.50;;;8.85;;
64674;SDS011;51090;51.512;11.332;2022-11-15T17:00:42;20.40;;;8.25;;
64674;SDS011;51090;51.512;11.332;2022-11-15T17:03:07;17.42;;;7.32;;
64674;SDS011;51090;51.512;11.332;2022-11-15T17:05:33;36.88;;;14.40;;
64674;SDS011;51090;51.512;11.332;2022-11-15T17:07:59;26.58;;;12.05;;
64674;SDS011;51090;51.512;11.332;2022-11-15T17:10:25;26.00;;;12.63;;
64674;SDS011;51090;51.512;11.332;2022-11-15T17:12:51;23.02;;;9.60;;
64674;SDS011;51090;51.512;11.332;2022-11-15T17:15:19;23.63;;;10.30;;
64674;SDS011;51090;51.512;11.332;2022-11-15T17:17:50;29.17;;;11.13;;
64674;SDS011;51090;51.512;11.332;2022-11-15T17:20:20;25.38;;;11.27;;
64674;SDS011;51090;51.512;11.332;2022-11-15T17:22:49;25.48;;;10.30;;